sensor_id;sensor_type;location;lat;lon;timestamp;P1;durP1;ratioP1;P2;durP2;ratioP2
45049;SDS011;61798;48.048;-1.928;2023-09-07T00:01:35;11.30;;;3.95;;
45049;SDS011;61798;48.048;-1.928;2023-09-07T00:03:41;13.23;;;3.20;;
45049;SDS011;61798;48.048;-1.928;2023-09-07T00:05:47;17.45;;;3.38;;
45049;SDS011;61798;48.048;-1.928;2023-09-07T00:07:53;14.35;;;3.25;;
45049;SDS011;61798;48.048;-1.928;2023-09-07T00:09:59;7.70;;;3.38;;
45049;SDS011;61798;48.048;-1.928;2023-09-07T00:12:05;15.63;;;3.92;;
45049;SDS011;61798;48.048;-1.928;2023-09-07T00:14:11;9.18;;;3.45;;
45049;SDS011;61798;48.048;-1.928;2023-09-07T00:16:17;17.33;;;4.10;;
45049;SDS011;61798;48.048;-1.928;2023-09-07T00:18:23;14.27;;;3.47;;
45049;SDS011;61798;48.048;-1.928;2023-09-07T00:20:29;12.02;;;3.88;;
45049;SDS011;61798;48.048;-1.928;2023-09-07T00:22:35;9.80;;;3.17;;
45049;SDS011;61798;48.048;-1.928;2023-09-07T00:24:40;13.00;;;3.55;;
45049;SDS011;61798;48.048;-1.928;2023-09-07T00:26:46;11.07;;;3.47;;
45049;SDS011;61798;48.048;-1.928;2023-09-07T00:28:52;11.65;;;3.80;;
45049;SDS011;61798;48.048;-1.928;2023-09-07T00:30:58;12.63;;;4.20;;
45049;SDS011;61798;48.048;-1.928;2023-09-07T00:33:04;11.50;;;3.47;;
45049;SDS011;61798;48.048;-1.928;2023-09-07T00:35:10;4.43;;;2.65;;
45049;SDS011;61798;48.048;-1.928;2023-09-07T00:37:16;8.15;;;3.80;;
45049;SDS011;61798;48.048;-1.928;2023-09-07T00:39:22;10.02;;;3.50;;
45049;SDS011;61798;48.048;-1.928;2023-09-07T00:41:28;11.90;;;3.78;;
45049;SDS011;61798;48.048;-1.928;2023-09-07T00:43:33;9.60;;;3.83;;
45049;SDS011;61798;48.048;-1.928;2023-09-07T00:45:39;17.10;;;3.88;;
45049;SDS011;61798;48.048;-1.928;2023-09-07T00:47:45;10.02;;;3.60;;
45049;SDS011;61798;48.048;-1.928;2023-09-07T00:49:51;9.43;;;3.10;;
45049;SDS011;61798;48.048;-1.928;2023-09-07T00:51:57;11.18;;;4.28;;
45049;SDS011;61798;48.048;-1.928;2023-09-07T00:54:03;14.15;;;3.75;;
45049;SDS011;61798;48.048;-1.928;2023-09-07T00:56:09;10.43;;;3.40;;
45049;SDS011;61798;48.048;-1.928;2023-09-07T00:58:15;10.80;;;3.55;;
45049;SDS011;61798;48.048;-1.928;2023-09-07T01:00:21;13.27;;;3.70;;
45049;SDS011;61798;48.048;-1.928;2023-09-07T01:02:27;15.85;;;3.88;;
45049;SDS011;61798;48.048;-1.928;2023-09-07T01:04:35;7.82;;;3.90;;
45049;SDS011;61798;48.048;-1.928;2023-09-07T01:06:43;14.23;;;3.60;;
45049;SDS011;61798;48.048;-1.928;2023-09-07T01:08:54;11.10;;;3.65;;
45049;SDS011;61798;48.048;-1.928;2023-09-07T01:11:12;12.98;;;4.00;;
45049;SDS011;61798;48.048;-1.928;2023-09-07T01:13:21;19.52;;;4.10;;
45049;SDS011;61798;48.048;-1.928;2023-09-07T01:15:27;10.18;;;4.28;;
45049;SDS011;61798;48.048;-1.928;2023-09-07T01:17:33;14.80;;;3.90;;
45049;SDS011;61798;48.048;-1.928;2023-09-07T01:19:39;12.77;;;3.75;;
45049;SDS011;61798;48.048;-1.928;2023-09-07T01:21:46;24.30;;;4.28;;
45049;SDS011;61798;48.048;-1.928;2023-09-07T01:23:52;11.95;;;3.67;;
45049;SDS011;61798;48.048;-1.928;2023-09-07T01:25:59;15.00;;;4.22;;
45049;SDS011;61798;48.048;-1.928;2023-09-07T01:28:05;9.30;;;3.28;;
45049;SDS011;61798;48.048;-1.928;2023-09-07T01:30:11;11.70;;;4.18;;
45049;SDS011;61798;48.048;-1.928;2023-09-07T01:32:18;11.40;;;3.63;;
45049;SDS011;61798;48.048;-1.928;2023-09-07T01:34:24;7.93;;;3.15;;
45049;SDS011;61798;48.048;-1.928;2023-09-07T01:36:30;11.32;;;3.85;;
45049;SDS011;61798;48.048;-1.928;2023-09-07T01:38:36;9.50;;;3.10;;
45049;SDS011;61798;48.048;-1.928;2023-09-07T01:40:42;8.63;;;3.30;;
45049;SDS011;61798;48.048;-1.928;2023-09-07T01:42:48;11.55;;;3.55;;
45049;SDS011;61798;48.048;-1.928;2023-09-07T01:44:53;19.08;;;3.97;;
45049;SDS011;61798;48.048;-1.928;2023-09-07T01:46:59;10.80;;;3.85;;
45049;SDS011;61798;48.048;-1.928;2023-09-07T01:49:05;8.15;;;3.40;;
45049;SDS011;61798;48.048;-1.928;2023-09-07T01:51:11;13.73;;;3.58;;
45049;SDS011;61798;48.048;-1.928;2023-09-07T01:53:16;10.65;;;3.90;;
45049;SDS011;61798;48.048;-1.928;2023-09-07T01:55:23;9.07;;;3.95;;
45049;SDS011;61798;48.048;-1.928;2023-09-07T01:57:28;12.02;;;4.10;;
45049;SDS011;61798;48.048;-1.928;2023-09-07T01:59:35;10.32;;;4.15;;
45049;SDS011;61798;48.048;-1.928;2023-09-07T02:01:41;11.35;;;4.07;;
45049;SDS011;61798;48.048;-1.928;2023-09-07T02:03:46;14.02;;;3.78;;
45049;SDS011;61798;48.048;-1.928;2023-09-07T02:05:52;12.95;;;3.60;;
45049;SDS011;61798;48.048;-1.928;2023-09-07T02:07:59;7.95;;;3.30;;
45049;SDS011;61798;48.048;-1.928;2023-09-07T02:10:05;9.45;;;3.58;;
45049;SDS011;61798;48.048;-1.928;2023-09-07T02:12:12;10.80;;;4.50;;
45049;SDS011;61798;48.048;-1.928;2023-09-07T02:14:18;12.20;;;3.42;;
45049;SDS011;61798;48.048;-1.928;2023-09-07T02:16:23;5.22;;;3.50;;
45049;SDS011;61798;48.048;-1.928;2023-09-07T02:18:29;14.75;;;4.45;;
45049;SDS011;61798;48.048;-1.928;2023-09-07T02:20:35;10.85;;;4.60;;
45049;SDS011;61798;48.048;-1.928;2023-09-07T02:22:41;12.88;;;4.30;;
45049;SDS011;61798;48.048;-1.928;2023-09-07T02:24:47;11.75;;;3.97;;
45049;SDS011;61798;48.048;-1.928;2023-09-07T02:26:53;16.83;;;3.95;;
45049;SDS011;61798;48.048;-1.928;2023-09-07T02:28:59;9.52;;;4.18;;
45049;SDS011;61798;48.048;-1.928;2023-09-07T02:31:05;11.52;;;4.05;;
45049;SDS011;61798;48.048;-1.928;2023-09-07T02:33:12;9.85;;;4.00;;
45049;SDS011;61798;48.048;-1.928;2023-09-07T02:35:18;6.72;;;3.50;;
45049;SDS011;61798;48.048;-1.928;2023-09-07T02:37:24;13.23;;;3.80;;
45049;SDS011;61798;48.048;-1.928;2023-09-07T02:39:30;14.13;;;4.25;;
45049;SDS011;61798;48.048;-1.928;2023-09-07T02:41:36;10.93;;;4.00;;
45049;SDS011;61798;48.048;-1.928;2023-09-07T02:43:42;7.60;;;3.72;;
45049;SDS011;61798;48.048;-1.928;2023-09-07T02:45:49;11.60;;;3.90;;
45049;SDS011;61798;48.048;-1.928;2023-09-07T02:47:55;18.45;;;5.22;;
45049;SDS011;61798;48.048;-1.928;2023-09-07T02:50:01;11.57;;;3.53;;
45049;SDS011;61798;48.048;-1.928;2023-09-07T02:52:07;16.25;;;3.47;;
45049;SDS011;61798;48.048;-1.928;2023-09-07T02:54:13;11.60;;;3.95;;
45049;SDS011;61798;48.048;-1.928;2023-09-07T02:56:19;14.48;;;3.88;;
45049;SDS011;61798;48.048;-1.928;2023-09-07T02:58:24;8.35;;;4.72;;
45049;SDS011;61798;48.048;-1.928;2023-09-07T03:00:30;21.08;;;4.43;;
45049;SDS011;61798;48.048;-1.928;2023-09-07T03:02:37;14.80;;;4.10;;
45049;SDS011;61798;48.048;-1.928;2023-09-07T03:04:42;12.63;;;4.38;;
45049;SDS011;61798;48.048;-1.928;2023-09-07T03:06:48;12.15;;;3.75;;
45049;SDS011;61798;48.048;-1.928;2023-09-07T03:08:54;8.45;;;3.83;;
45049;SDS011;61798;48.048;-1.928;2023-09-07T03:11:04;9.35;;;3.88;;
45049;SDS011;61798;48.048;-1.928;2023-09-07T03:13:10;8.10;;;4.00;;
45049;SDS011;61798;48.048;-1.928;2023-09-07T03:15:16;11.45;;;4.07;;
45049;SDS011;61798;48.048;-1.928;2023-09-07T03:17:23;9.23;;;4.00;;
45049;SDS011;61798;48.048;-1.928;2023-09-07T03:19:29;8.35;;;3.70;;
45049;SDS011;61798;48.048;-1.928;2023-09-07T03:21:35;7.63;;;4.18;;
45049;SDS011;61798;48.048;-1.928;2023-09-07T03:23:41;8.25;;;4.03;;
45049;SDS011;61798;48.048;-1.928;2023-09-07T03:25:49;10.25;;;4.57;;
45049;SDS011;61798;48.048;-1.928;2023-09-07T03:27:55;9.93;;;4.32;;
45049;SDS011;61798;48.048;-1.928;2023-09-07T03:30:01;9.90;;;3.90;;
45049;SDS011;61798;48.048;-1.928;2023-09-07T03:32:09;8.60;;;3.80;;
45049;SDS011;61798;48.048;-1.928;2023-09-07T03:34:15;17.85;;;4.15;;
45049;SDS011;61798;48.048;-1.928;2023-09-07T03:36:21;21.48;;;4.78;;
45049;SDS011;61798;48.048;-1.928;2023-09-07T03:38:27;12.93;;;4.35;;
45049;SDS011;61798;48.048;-1.928;2023-09-07T03:40:33;14.32;;;4.43;;
45049;SDS011;61798;48.048;-1.928;2023-09-07T03:42:39;8.65;;;4.50;;
45049;SDS011;61798;48.048;-1.928;2023-09-07T03:44:44;9.90;;;4.75;;
45049;SDS011;61798;48.048;-1.928;2023-09-07T03:46:50;11.07;;;4.50;;
45049;SDS011;61798;48.048;-1.928;2023-09-07T03:48:56;13.73;;;3.42;;
45049;SDS011;61798;48.048;-1.928;2023-09-07T03:51:05;10.25;;;4.20;;
45049;SDS011;61798;48.048;-1.928;2023-09-07T03:53:12;15.80;;;5.32;;
45049;SDS011;61798;48.048;-1.928;2023-09-07T03:55:18;15.18;;;5.00;;
45049;SDS011;61798;48.048;-1.928;2023-09-07T03:57:25;7.45;;;3.85;;
45049;SDS011;61798;48.048;-1.928;2023-09-07T03:59:31;8.43;;;3.78;;
45049;SDS011;61798;48.048;-1.928;2023-09-07T04:01:37;16.15;;;4.35;;
45049;SDS011;61798;48.048;-1.928;2023-09-07T04:03:43;10.38;;;3.72;;
45049;SDS011;61798;48.048;-1.928;2023-09-07T04:05:50;9.43;;;4.07;;
45049;SDS011;61798;48.048;-1.928;2023-09-07T04:07:56;10.23;;;4.22;;
45049;SDS011;61798;48.048;-1.928;2023-09-07T04:10:02;11.43;;;4.25;;
45049;SDS011;61798;48.048;-1.928;2023-09-07T04:12:08;6.72;;;4.18;;
45049;SDS011;61798;48.048;-1.928;2023-09-07T04:14:15;23.73;;;5.38;;
45049;SDS011;61798;48.048;-1.928;2023-09-07T04:16:20;12.38;;;5.20;;
45049;SDS011;61798;48.048;-1.928;2023-09-07T04:18:26;11.07;;;4.80;;
45049;SDS011;61798;48.048;-1.928;2023-09-07T04:20:32;14.18;;;5.07;;
45049;SDS011;61798;48.048;-1.928;2023-09-07T04:22:41;10.13;;;3.92;;
45049;SDS011;61798;48.048;-1.928;2023-09-07T04:24:47;8.75;;;4.30;;
45049;SDS011;61798;48.048;-1.928;2023-09-07T04:26:57;10.43;;;4.78;;
45049;SDS011;61798;48.048;-1.928;2023-09-07T04:29:06;15.82;;;4.85;;
45049;SDS011;61798;48.048;-1.928;2023-09-07T04:31:12;13.20;;;4.43;;
45049;SDS011;61798;48.048;-1.928;2023-09-07T04:33:18;18.27;;;4.78;;
45049;SDS011;61798;48.048;-1.928;2023-09-07T04:35:30;14.00;;;4.50;;
45049;SDS011;61798;48.048;-1.928;2023-09-07T04:37:37;13.95;;;4.50;;
45049;SDS011;61798;48.048;-1.928;2023-09-07T04:39:43;18.52;;;5.85;;
45049;SDS011;61798;48.048;-1.928;2023-09-07T04:41:49;11.02;;;4.70;;
45049;SDS011;61798;48.048;-1.928;2023-09-07T04:43:54;14.85;;;4.25;;
45049;SDS011;61798;48.048;-1.928;2023-09-07T04:46:00;12.80;;;5.15;;
45049;SDS011;61798;48.048;-1.928;2023-09-07T04:48:06;13.23;;;4.38;;
45049;SDS011;61798;48.048;-1.928;2023-09-07T04:50:12;13.60;;;4.70;;
45049;SDS011;61798;48.048;-1.928;2023-09-07T04:52:19;9.48;;;4.50;;
45049;SDS011;61798;48.048;-1.928;2023-09-07T04:54:24;13.68;;;4.45;;
45049;SDS011;61798;48.048;-1.928;2023-09-07T04:56:33;24.83;;;5.20;;
45049;SDS011;61798;48.048;-1.928;2023-09-07T04:58:39;7.68;;;3.95;;
45049;SDS011;61798;48.048;-1.928;2023-09-07T05:00:45;18.42;;;4.40;;
45049;SDS011;61798;48.048;-1.928;2023-09-07T05:02:51;12.93;;;4.20;;
45049;SDS011;61798;48.048;-1.928;2023-09-07T05:04:57;10.35;;;4.32;;
45049;SDS011;61798;48.048;-1.928;2023-09-07T05:07:02;7.18;;;4.03;;
45049;SDS011;61798;48.048;-1.928;2023-09-07T05:09:08;11.48;;;4.97;;
45049;SDS011;61798;48.048;-1.928;2023-09-07T05:11:14;10.40;;;4.15;;
45049;SDS011;61798;48.048;-1.928;2023-09-07T05:13:20;10.93;;;4.60;;
45049;SDS011;61798;48.048;-1.928;2023-09-07T05:15:26;9.02;;;4.45;;
45049;SDS011;61798;48.048;-1.928;2023-09-07T05:17:32;13.32;;;4.63;;
45049;SDS011;61798;48.048;-1.928;2023-09-07T05:19:38;11.32;;;4.47;;
45049;SDS011;61798;48.048;-1.928;2023-09-07T05:21:44;11.45;;;4.05;;
45049;SDS011;61798;48.048;-1.928;2023-09-07T05:23:50;12.48;;;4.47;;
45049;SDS011;61798;48.048;-1.928;2023-09-07T05:25:55;12.82;;;4.43;;
45049;SDS011;61798;48.048;-1.928;2023-09-07T05:28:01;10.70;;;5.15;;
45049;SDS011;61798;48.048;-1.928;2023-09-07T05:30:07;16.00;;;4.97;;
45049;SDS011;61798;48.048;-1.928;2023-09-07T05:32:13;9.90;;;4.10;;
45049;SDS011;61798;48.048;-1.928;2023-09-07T05:34:19;16.50;;;5.65;;
45049;SDS011;61798;48.048;-1.928;2023-09-07T05:36:25;23.27;;;4.80;;
45049;SDS011;61798;48.048;-1.928;2023-09-07T05:38:32;15.50;;;5.07;;
45049;SDS011;61798;48.048;-1.928;2023-09-07T05:40:39;14.80;;;5.28;;
45049;SDS011;61798;48.048;-1.928;2023-09-07T05:42:49;12.07;;;4.38;;
45049;SDS011;61798;48.048;-1.928;2023-09-07T05:44:55;13.57;;;5.30;;
45049;SDS011;61798;48.048;-1.928;2023-09-07T05:47:01;12.25;;;3.78;;
45049;SDS011;61798;48.048;-1.928;2023-09-07T05:49:07;13.10;;;4.18;;
45049;SDS011;61798;48.048;-1.928;2023-09-07T05:51:13;10.05;;;3.78;;
45049;SDS011;61798;48.048;-1.928;2023-09-07T05:53:19;13.15;;;4.43;;
45049;SDS011;61798;48.048;-1.928;2023-09-07T05:55:30;11.88;;;4.38;;
45049;SDS011;61798;48.048;-1.928;2023-09-07T05:57:36;10.43;;;4.18;;
45049;SDS011;61798;48.048;-1.928;2023-09-07T05:59:42;11.05;;;4.20;;
45049;SDS011;61798;48.048;-1.928;2023-09-07T06:01:48;9.25;;;4.25;;
45049;SDS011;61798;48.048;-1.928;2023-09-07T06:03:53;16.98;;;5.07;;
45049;SDS011;61798;48.048;-1.928;2023-09-07T06:06:00;13.27;;;4.15;;
45049;SDS011;61798;48.048;-1.928;2023-09-07T06:08:05;11.07;;;4.13;;
45049;SDS011;61798;48.048;-1.928;2023-09-07T06:10:12;12.38;;;4.25;;
45049;SDS011;61798;48.048;-1.928;2023-09-07T06:12:18;10.57;;;4.82;;
45049;SDS011;61798;48.048;-1.928;2023-09-07T06:14:25;8.25;;;4.32;;
45049;SDS011;61798;48.048;-1.928;2023-09-07T06:16:31;10.63;;;4.30;;
45049;SDS011;61798;48.048;-1.928;2023-09-07T06:18:36;14.60;;;5.32;;
45049;SDS011;61798;48.048;-1.928;2023-09-07T06:20:42;17.42;;;4.10;;
45049;SDS011;61798;48.048;-1.928;2023-09-07T06:22:48;16.88;;;4.72;;
45049;SDS011;61798;48.048;-1.928;2023-09-07T06:24:54;21.73;;;5.38;;
45049;SDS011;61798;48.048;-1.928;2023-09-07T06:27:00;15.45;;;5.60;;
45049;SDS011;61798;48.048;-1.928;2023-09-07T06:29:06;11.90;;;5.30;;
45049;SDS011;61798;48.048;-1.928;2023-09-07T06:31:12;12.35;;;4.68;;
45049;SDS011;61798;48.048;-1.928;2023-09-07T06:33:18;8.70;;;4.38;;
45049;SDS011;61798;48.048;-1.928;2023-09-07T06:35:24;12.85;;;4.55;;
45049;SDS011;61798;48.048;-1.928;2023-09-07T06:37:30;14.27;;;4.45;;
45049;SDS011;61798;48.048;-1.928;2023-09-07T06:39:36;11.30;;;5.00;;
45049;SDS011;61798;48.048;-1.928;2023-09-07T06:41:43;21.17;;;5.00;;
45049;SDS011;61798;48.048;-1.928;2023-09-07T06:43:50;14.63;;;5.50;;
45049;SDS011;61798;48.048;-1.928;2023-09-07T06:46:01;18.00;;;5.78;;
45049;SDS011;61798;48.048;-1.928;2023-09-07T06:48:12;15.20;;;4.93;;
45049;SDS011;61798;48.048;-1.928;2023-09-07T06:50:18;11.45;;;4.78;;
45049;SDS011;61798;48.048;-1.928;2023-09-07T06:52:25;17.80;;;5.35;;
45049;SDS011;61798;48.048;-1.928;2023-09-07T06:54:31;14.35;;;5.28;;
45049;SDS011;61798;48.048;-1.928;2023-09-07T06:56:37;8.52;;;4.07;;
45049;SDS011;61798;48.048;-1.928;2023-09-07T06:58:42;14.82;;;5.45;;
45049;SDS011;61798;48.048;-1.928;2023-09-07T07:00:48;15.38;;;5.85;;
45049;SDS011;61798;48.048;-1.928;2023-09-07T07:02:54;18.98;;;6.30;;
45049;SDS011;61798;48.048;-1.928;2023-09-07T07:05:01;13.05;;;5.45;;
45049;SDS011;61798;48.048;-1.928;2023-09-07T07:07:08;18.35;;;6.03;;
45049;SDS011;61798;48.048;-1.928;2023-09-07T07:09:14;14.38;;;6.53;;
45049;SDS011;61798;48.048;-1.928;2023-09-07T07:11:19;13.02;;;5.03;;
45049;SDS011;61798;48.048;-1.928;2023-09-07T07:13:25;12.32;;;4.72;;
45049;SDS011;61798;48.048;-1.928;2023-09-07T07:15:31;21.27;;;5.70;;
45049;SDS011;61798;48.048;-1.928;2023-09-07T07:17:37;18.73;;;6.57;;
45049;SDS011;61798;48.048;-1.928;2023-09-07T07:19:43;12.55;;;5.78;;
45049;SDS011;61798;48.048;-1.928;2023-09-07T07:21:49;16.35;;;5.82;;
45049;SDS011;61798;48.048;-1.928;2023-09-07T07:23:55;11.30;;;4.93;;
45049;SDS011;61798;48.048;-1.928;2023-09-07T07:26:01;18.15;;;5.75;;
45049;SDS011;61798;48.048;-1.928;2023-09-07T07:28:07;12.93;;;4.40;;
45049;SDS011;61798;48.048;-1.928;2023-09-07T07:30:13;18.88;;;6.03;;
45049;SDS011;61798;48.048;-1.928;2023-09-07T07:32:19;17.88;;;6.50;;
45049;SDS011;61798;48.048;-1.928;2023-09-07T07:34:25;21.00;;;6.00;;
45049;SDS011;61798;48.048;-1.928;2023-09-07T07:36:31;20.77;;;6.53;;
45049;SDS011;61798;48.048;-1.928;2023-09-07T07:38:37;25.60;;;6.35;;
45049;SDS011;61798;48.048;-1.928;2023-09-07T07:40:42;17.08;;;6.85;;
45049;SDS011;61798;48.048;-1.928;2023-09-07T07:42:50;13.20;;;6.57;;
45049;SDS011;61798;48.048;-1.928;2023-09-07T07:44:57;18.25;;;6.95;;
45049;SDS011;61798;48.048;-1.928;2023-09-07T07:47:03;22.15;;;6.10;;
45049;SDS011;61798;48.048;-1.928;2023-09-07T07:49:09;22.02;;;6.43;;
45049;SDS011;61798;48.048;-1.928;2023-09-07T07:51:15;24.70;;;6.22;;
45049;SDS011;61798;48.048;-1.928;2023-09-07T07:53:21;14.02;;;5.53;;
45049;SDS011;61798;48.048;-1.928;2023-09-07T07:55:26;19.08;;;6.13;;
45049;SDS011;61798;48.048;-1.928;2023-09-07T07:57:32;16.35;;;5.25;;
45049;SDS011;61798;48.048;-1.928;2023-09-07T07:59:38;17.50;;;5.50;;
45049;SDS011;61798;48.048;-1.928;2023-09-07T08:01:44;22.25;;;5.50;;
45049;SDS011;61798;48.048;-1.928;2023-09-07T08:03:50;15.35;;;5.28;;
45049;SDS011;61798;48.048;-1.928;2023-09-07T08:05:57;25.25;;;5.20;;
45049;SDS011;61798;48.048;-1.928;2023-09-07T08:08:03;16.75;;;5.55;;
45049;SDS011;61798;48.048;-1.928;2023-09-07T08:10:09;12.50;;;4.95;;
45049;SDS011;61798;48.048;-1.928;2023-09-07T08:12:15;22.63;;;6.43;;
45049;SDS011;61798;48.048;-1.928;2023-09-07T08:14:21;15.38;;;5.22;;
45049;SDS011;61798;48.048;-1.928;2023-09-07T08:16:27;17.33;;;4.65;;
45049;SDS011;61798;48.048;-1.928;2023-09-07T08:18:33;15.10;;;4.95;;
45049;SDS011;61798;48.048;-1.928;2023-09-07T08:20:39;16.98;;;5.22;;
45049;SDS011;61798;48.048;-1.928;2023-09-07T08:22:47;12.82;;;5.40;;
45049;SDS011;61798;48.048;-1.928;2023-09-07T08:24:53;14.02;;;5.20;;
45049;SDS011;61798;48.048;-1.928;2023-09-07T08:26:59;11.98;;;4.78;;
45049;SDS011;61798;48.048;-1.928;2023-09-07T08:29:05;17.50;;;4.75;;
45049;SDS011;61798;48.048;-1.928;2023-09-07T08:31:13;14.80;;;4.68;;
45049;SDS011;61798;48.048;-1.928;2023-09-07T08:33:26;10.45;;;4.35;;
45049;SDS011;61798;48.048;-1.928;2023-09-07T08:35:35;13.00;;;5.22;;
45049;SDS011;61798;48.048;-1.928;2023-09-07T08:37:43;20.90;;;5.15;;
45049;SDS011;61798;48.048;-1.928;2023-09-07T08:39:48;11.20;;;5.20;;
45049;SDS011;61798;48.048;-1.928;2023-09-07T08:41:55;14.00;;;4.90;;
45049;SDS011;61798;48.048;-1.928;2023-09-07T08:44:03;12.48;;;5.13;;
45049;SDS011;61798;48.048;-1.928;2023-09-07T08:46:15;14.82;;;5.03;;
45049;SDS011;61798;48.048;-1.928;2023-09-07T08:48:23;11.60;;;4.13;;
45049;SDS011;61798;48.048;-1.928;2023-09-07T08:50:31;11.18;;;4.57;;
45049;SDS011;61798;48.048;-1.928;2023-09-07T08:52:37;16.52;;;4.50;;
45049;SDS011;61798;48.048;-1.928;2023-09-07T08:54:43;13.45;;;5.45;;
45049;SDS011;61798;48.048;-1.928;2023-09-07T08:56:52;18.83;;;5.35;;
45049;SDS011;61798;48.048;-1.928;2023-09-07T08:58:58;13.98;;;5.35;;
45049;SDS011;61798;48.048;-1.928;2023-09-07T09:01:04;15.60;;;4.65;;
45049;SDS011;61798;48.048;-1.928;2023-09-07T09:03:10;16.02;;;5.55;;
45049;SDS011;61798;48.048;-1.928;2023-09-07T09:05:16;8.82;;;4.00;;
45049;SDS011;61798;48.048;-1.928;2023-09-07T09:07:25;14.25;;;4.43;;
45049;SDS011;61798;48.048;-1.928;2023-09-07T09:09:31;15.85;;;4.53;;
45049;SDS011;61798;48.048;-1.928;2023-09-07T09:11:37;10.68;;;4.90;;
45049;SDS011;61798;48.048;-1.928;2023-09-07T09:13:43;14.07;;;4.95;;
45049;SDS011;61798;48.048;-1.928;2023-09-07T09:15:50;18.02;;;4.53;;
45049;SDS011;61798;48.048;-1.928;2023-09-07T09:17:56;19.35;;;4.78;;
45049;SDS011;61798;48.048;-1.928;2023-09-07T09:20:02;13.20;;;4.40;;
45049;SDS011;61798;48.048;-1.928;2023-09-07T09:22:11;11.95;;;4.10;;
45049;SDS011;61798;48.048;-1.928;2023-09-07T09:24:17;15.38;;;4.88;;
45049;SDS011;61798;48.048;-1.928;2023-09-07T09:26:23;9.48;;;4.38;;
45049;SDS011;61798;48.048;-1.928;2023-09-07T09:28:33;18.17;;;5.78;;
45049;SDS011;61798;48.048;-1.928;2023-09-07T09:30:39;9.73;;;4.07;;
45049;SDS011;61798;48.048;-1.928;2023-09-07T09:32:48;12.00;;;4.60;;
45049;SDS011;61798;48.048;-1.928;2023-09-07T09:34:54;11.98;;;4.18;;
45049;SDS011;61798;48.048;-1.928;2023-09-07T09:37:01;9.32;;;4.20;;
45049;SDS011;61798;48.048;-1.928;2023-09-07T09:39:09;7.68;;;3.85;;
45049;SDS011;61798;48.048;-1.928;2023-09-07T09:41:15;10.27;;;3.72;;
45049;SDS011;61798;48.048;-1.928;2023-09-07T09:43:26;9.50;;;4.22;;
45049;SDS011;61798;48.048;-1.928;2023-09-07T09:45:32;13.18;;;3.75;;
45049;SDS011;61798;48.048;-1.928;2023-09-07T09:47:41;13.18;;;4.07;;
45049;SDS011;61798;48.048;-1.928;2023-09-07T09:49:48;8.13;;;3.85;;
45049;SDS011;61798;48.048;-1.928;2023-09-07T09:51:55;12.80;;;4.00;;
45049;SDS011;61798;48.048;-1.928;2023-09-07T09:54:04;8.38;;;3.83;;
45049;SDS011;61798;48.048;-1.928;2023-09-07T09:56:11;12.40;;;4.00;;
45049;SDS011;61798;48.048;-1.928;2023-09-07T09:58:17;9.52;;;3.72;;
45049;SDS011;61798;48.048;-1.928;2023-09-07T10:00:23;14.40;;;3.78;;
45049;SDS011;61798;48.048;-1.928;2023-09-07T10:02:34;11.75;;;3.80;;
45049;SDS011;61798;48.048;-1.928;2023-09-07T10:04:43;12.13;;;4.07;;
45049;SDS011;61798;48.048;-1.928;2023-09-07T10:06:52;6.60;;;3.60;;
45049;SDS011;61798;48.048;-1.928;2023-09-07T10:09:04;14.85;;;3.42;;
45049;SDS011;61798;48.048;-1.928;2023-09-07T10:11:12;6.13;;;3.10;;
45049;SDS011;61798;48.048;-1.928;2023-09-07T10:13:28;8.30;;;3.45;;
45049;SDS011;61798;48.048;-1.928;2023-09-07T10:15:35;13.80;;;3.45;;
45049;SDS011;61798;48.048;-1.928;2023-09-07T10:17:41;12.23;;;4.05;;
45049;SDS011;61798;48.048;-1.928;2023-09-07T10:19:47;12.27;;;3.72;;
45049;SDS011;61798;48.048;-1.928;2023-09-07T10:21:57;11.93;;;3.78;;
45049;SDS011;61798;48.048;-1.928;2023-09-07T10:24:03;16.33;;;3.72;;
45049;SDS011;61798;48.048;-1.928;2023-09-07T10:26:13;7.40;;;3.28;;
45049;SDS011;61798;48.048;-1.928;2023-09-07T10:28:22;10.93;;;3.88;;
45049;SDS011;61798;48.048;-1.928;2023-09-07T10:30:29;17.50;;;3.50;;
45049;SDS011;61798;48.048;-1.928;2023-09-07T10:32:38;10.60;;;3.65;;
45049;SDS011;61798;48.048;-1.928;2023-09-07T10:34:46;12.48;;;2.83;;
45049;SDS011;61798;48.048;-1.928;2023-09-07T10:36:55;10.50;;;3.05;;
45049;SDS011;61798;48.048;-1.928;2023-09-07T10:39:02;15.52;;;3.13;;
45049;SDS011;61798;48.048;-1.928;2023-09-07T10:41:09;12.60;;;3.10;;
45049;SDS011;61798;48.048;-1.928;2023-09-07T10:43:15;13.18;;;3.20;;
45049;SDS011;61798;48.048;-1.928;2023-09-07T10:45:21;9.45;;;3.13;;
45049;SDS011;61798;48.048;-1.928;2023-09-07T10:47:27;5.72;;;2.60;;
45049;SDS011;61798;48.048;-1.928;2023-09-07T10:49:34;13.57;;;3.58;;
45049;SDS011;61798;48.048;-1.928;2023-09-07T10:51:43;11.70;;;2.70;;
45049;SDS011;61798;48.048;-1.928;2023-09-07T10:53:49;13.95;;;2.70;;
45049;SDS011;61798;48.048;-1.928;2023-09-07T10:55:59;11.20;;;3.08;;
45049;SDS011;61798;48.048;-1.928;2023-09-07T10:58:08;11.65;;;3.88;;
45049;SDS011;61798;48.048;-1.928;2023-09-07T11:00:15;13.68;;;3.25;;
45049;SDS011;61798;48.048;-1.928;2023-09-07T11:02:22;14.27;;;3.08;;
45049;SDS011;61798;48.048;-1.928;2023-09-07T11:04:27;9.82;;;3.40;;
45049;SDS011;61798;48.048;-1.928;2023-09-07T11:06:33;19.60;;;3.70;;
45049;SDS011;61798;48.048;-1.928;2023-09-07T11:08:40;13.60;;;3.03;;
45049;SDS011;61798;48.048;-1.928;2023-09-07T11:10:47;15.30;;;3.13;;
45049;SDS011;61798;48.048;-1.928;2023-09-07T11:12:55;12.27;;;3.78;;
45049;SDS011;61798;48.048;-1.928;2023-09-07T11:15:00;7.10;;;2.97;;
45049;SDS011;61798;48.048;-1.928;2023-09-07T11:17:06;18.85;;;3.50;;
45049;SDS011;61798;48.048;-1.928;2023-09-07T11:19:13;19.08;;;3.78;;
45049;SDS011;61798;48.048;-1.928;2023-09-07T11:21:20;12.35;;;2.80;;
45049;SDS011;61798;48.048;-1.928;2023-09-07T11:23:26;14.15;;;3.67;;
45049;SDS011;61798;48.048;-1.928;2023-09-07T11:25:34;15.95;;;2.92;;
45049;SDS011;61798;48.048;-1.928;2023-09-07T11:27:41;12.20;;;3.22;;
45049;SDS011;61798;48.048;-1.928;2023-09-07T11:29:51;12.63;;;3.03;;
45049;SDS011;61798;48.048;-1.928;2023-09-07T11:32:10;23.63;;;3.17;;
45049;SDS011;61798;48.048;-1.928;2023-09-07T11:34:16;20.98;;;4.03;;
45049;SDS011;61798;48.048;-1.928;2023-09-07T11:36:22;14.60;;;3.15;;
45049;SDS011;61798;48.048;-1.928;2023-09-07T11:38:35;14.68;;;3.50;;
45049;SDS011;61798;48.048;-1.928;2023-09-07T11:40:43;17.77;;;3.20;;
45049;SDS011;61798;48.048;-1.928;2023-09-07T11:42:50;11.25;;;3.05;;
45049;SDS011;61798;48.048;-1.928;2023-09-07T11:44:56;15.85;;;3.58;;
45049;SDS011;61798;48.048;-1.928;2023-09-07T11:47:02;12.93;;;3.45;;
45049;SDS011;61798;48.048;-1.928;2023-09-07T11:49:09;11.52;;;2.92;;
45049;SDS011;61798;48.048;-1.928;2023-09-07T11:51:15;9.23;;;2.80;;
45049;SDS011;61798;48.048;-1.928;2023-09-07T11:53:21;8.60;;;2.72;;
45049;SDS011;61798;48.048;-1.928;2023-09-07T11:55:27;16.13;;;3.05;;
45049;SDS011;61798;48.048;-1.928;2023-09-07T11:57:33;15.90;;;3.90;;
45049;SDS011;61798;48.048;-1.928;2023-09-07T11:59:39;11.13;;;2.83;;
45049;SDS011;61798;48.048;-1.928;2023-09-07T12:01:45;17.60;;;3.20;;
45049;SDS011;61798;48.048;-1.928;2023-09-07T12:03:50;16.80;;;3.45;;
45049;SDS011;61798;48.048;-1.928;2023-09-07T12:05:59;16.90;;;2.92;;
45049;SDS011;61798;48.048;-1.928;2023-09-07T12:08:05;14.25;;;2.97;;
45049;SDS011;61798;48.048;-1.928;2023-09-07T12:10:11;18.80;;;3.38;;
45049;SDS011;61798;48.048;-1.928;2023-09-07T12:12:19;11.10;;;2.90;;
45049;SDS011;61798;48.048;-1.928;2023-09-07T12:14:25;12.60;;;3.10;;
45049;SDS011;61798;48.048;-1.928;2023-09-07T12:16:30;14.48;;;2.88;;
45049;SDS011;61798;48.048;-1.928;2023-09-07T12:18:36;11.80;;;3.20;;
45049;SDS011;61798;48.048;-1.928;2023-09-07T12:20:43;15.90;;;3.35;;
45049;SDS011;61798;48.048;-1.928;2023-09-07T12:22:50;11.93;;;3.83;;